Moyer Aviation Incorporated

Pocono Mountains Airport

188 Airport Drive. Tobyhanna, PA 18466 

P: 570-839-7161
800-321-5890
F: 570-839-7162

Weather

Weather

Pocono Weather

KMPO 201153Z AUTO 31015G24KT 10SM OVC023 M03/M07 A3011 RMK AO2 PK WND 31027/1114 SLP218 60000 70002 T10281072 11028 21033 53024

Allentown Weather

KABE 201151Z 32013G21KT 10SM SCT042 03/M07 A3019 RMK AO2 SLP227 70004 T00331067 10033 20022 51022

Wilkes-Barre Weather

KAVP 201154Z 35014G18KT 10SM OVC032 00/M06 A3018 RMK AO2 SLP228 60001 70006 T00001056 10000 21011 51024


* required field

Contact Us